sensor_id;sensor_type;location;lat;lon;timestamp;temperature;humidity
758;DHT22;363;48.764;9.172;2022-12-10T00:00:42;4.00;99.90
758;DHT22;363;48.764;9.172;2022-12-10T00:03:08;4.30;99.90
758;DHT22;363;48.764;9.172;2022-12-10T00:05:34;3.60;99.90
758;DHT22;363;48.764;9.172;2022-12-10T00:07:59;4.30;99.90
758;DHT22;363;48.764;9.172;2022-12-10T00:10:25;4.20;99.90
758;DHT22;363;48.764;9.172;2022-12-10T00:12:51;4.20;99.90
758;DHT22;363;48.764;9.172;2022-12-10T00:15:17;3.50;99.90
758;DHT22;363;48.764;9.172;2022-12-10T00:17:42;4.10;99.90
758;DHT22;363;48.764;9.172;2022-12-10T00:20:09;4.30;99.90
758;DHT22;363;48.764;9.172;2022-12-10T00:22:35;4.40;99.90
758;DHT22;363;48.764;9.172;2022-12-10T00:25:01;4.40;99.90
758;DHT22;363;48.764;9.172;2022-12-10T00:27:26;4.10;99.90
758;DHT22;363;48.764;9.172;2022-12-10T00:29:52;4.10;99.90
758;DHT22;363;48.764;9.172;2022-12-10T00:32:17;4.10;99.90
758;DHT22;363;48.764;9.172;2022-12-10T00:34:43;4.30;99.90
758;DHT22;363;48.764;9.172;2022-12-10T00:37:09;4.40;99.90
758;DHT22;363;48.764;9.172;2022-12-10T00:39:34;3.30;99.90
758;DHT22;363;48.764;9.172;2022-12-10T00:42:00;4.10;99.90
758;DHT22;363;48.764;9.172;2022-12-10T00:44:26;4.30;99.90
758;DHT22;363;48.764;9.172;2022-12-10T00:46:51;4.00;99.90
758;DHT22;363;48.764;9.172;2022-12-10T00:49:17;4.20;99.90
758;DHT22;363;48.764;9.172;2022-12-10T00:51:43;3.90;99.90
758;DHT22;363;48.764;9.172;2022-12-10T00:54:08;4.50;99.90
758;DHT22;363;48.764;9.172;2022-12-10T00:56:35;3.90;99.90
758;DHT22;363;48.764;9.172;2022-12-10T00:59:01;4.00;99.90
758;DHT22;363;48.764;9.172;2022-12-10T01:01:36;4.00;99.90
758;DHT22;363;48.764;9.172;2022-12-10T01:04:08;3.90;99.90
758;DHT22;363;48.764;9.172;2022-12-10T01:06:36;3.90;99.90
758;DHT22;363;48.764;9.172;2022-12-10T01:09:05;4.00;99.90
758;DHT22;363;48.764;9.172;2022-12-10T01:11:35;4.20;99.90
758;DHT22;363;48.764;9.172;2022-12-10T01:14:03;4.20;99.90
758;DHT22;363;48.764;9.172;2022-12-10T01:16:28;4.20;99.90
758;DHT22;363;48.764;9.172;2022-12-10T01:18:55;3.40;99.90
758;DHT22;363;48.764;9.172;2022-12-10T01:21:22;4.00;99.90
758;DHT22;363;48.764;9.172;2022-12-10T01:23:50;4.10;99.90
758;DHT22;363;48.764;9.172;2022-12-10T01:26:21;4.10;99.90
758;DHT22;363;48.764;9.172;2022-12-10T01:28:48;4.10;99.90
758;DHT22;363;48.764;9.172;2022-12-10T01:31:34;4.20;99.90
758;DHT22;363;48.764;9.172;2022-12-10T01:34:01;4.20;99.90
758;DHT22;363;48.764;9.172;2022-12-10T01:36:30;4.00;99.90
758;DHT22;363;48.764;9.172;2022-12-10T01:38:57;4.10;99.90
758;DHT22;363;48.764;9.172;2022-12-10T01:41:26;4.00;99.90
758;DHT22;363;48.764;9.172;2022-12-10T01:43:54;4.00;99.90
758;DHT22;363;48.764;9.172;2022-12-10T01:46:20;4.20;99.90
758;DHT22;363;48.764;9.172;2022-12-10T01:48:46;4.00;99.90
758;DHT22;363;48.764;9.172;2022-12-10T01:51:14;3.90;99.90
758;DHT22;363;48.764;9.172;2022-12-10T01:53:41;3.30;99.90
758;DHT22;363;48.764;9.172;2022-12-10T01:56:09;4.40;99.90
758;DHT22;363;48.764;9.172;2022-12-10T01:58:36;4.10;99.90
758;DHT22;363;48.764;9.172;2022-12-10T02:01:27;4.20;99.90
758;DHT22;363;48.764;9.172;2022-12-10T02:06:57;4.20;99.90
758;DHT22;363;48.764;9.172;2022-12-10T02:14:43;4.10;99.90
758;DHT22;363;48.764;9.172;2022-12-10T02:17:24;3.90;99.90
758;DHT22;363;48.764;9.172;2022-12-10T02:22:17;4.30;99.90
758;DHT22;363;48.764;9.172;2022-12-10T02:24:47;3.50;99.90
758;DHT22;363;48.764;9.172;2022-12-10T02:27:32;3.90;99.90
758;DHT22;363;48.764;9.172;2022-12-10T02:30:00;4.00;99.90
758;DHT22;363;48.764;9.172;2022-12-10T02:32:33;3.50;99.90
758;DHT22;363;48.764;9.172;2022-12-10T02:35:03;4.00;99.90
758;DHT22;363;48.764;9.172;2022-12-10T02:37:34;4.10;99.90
758;DHT22;363;48.764;9.172;2022-12-10T02:40:06;4.70;99.90
758;DHT22;363;48.764;9.172;2022-12-10T02:42:37;4.20;99.90
758;DHT22;363;48.764;9.172;2022-12-10T02:45:04;3.90;99.90
758;DHT22;363;48.764;9.172;2022-12-10T02:47:30;4.00;99.90
758;DHT22;363;48.764;9.172;2022-12-10T02:49:58;4.10;99.90
758;DHT22;363;48.764;9.172;2022-12-10T02:52:24;4.00;99.90
758;DHT22;363;48.764;9.172;2022-12-10T02:54:51;4.00;99.90
758;DHT22;363;48.764;9.172;2022-12-10T03:00:08;3.90;99.90
758;DHT22;363;48.764;9.172;2022-12-10T03:08:52;3.60;99.90
758;DHT22;363;48.764;9.172;2022-12-10T03:11:22;3.70;99.90
758;DHT22;363;48.764;9.172;2022-12-10T03:13:55;3.60;99.90
758;DHT22;363;48.764;9.172;2022-12-10T03:16:24;3.80;99.90
758;DHT22;363;48.764;9.172;2022-12-10T03:18:56;3.80;99.90
758;DHT22;363;48.764;9.172;2022-12-10T03:21:23;3.70;99.90
758;DHT22;363;48.764;9.172;2022-12-10T03:23:50;3.60;99.90
758;DHT22;363;48.764;9.172;2022-12-10T03:26:17;3.60;99.90
758;DHT22;363;48.764;9.172;2022-12-10T03:28:50;3.50;99.90
758;DHT22;363;48.764;9.172;2022-12-10T03:31:18;3.90;99.90
758;DHT22;363;48.764;9.172;2022-12-10T03:33:46;3.60;99.90
758;DHT22;363;48.764;9.172;2022-12-10T03:36:13;3.70;99.90
758;DHT22;363;48.764;9.172;2022-12-10T03:38:40;3.70;99.90
758;DHT22;363;48.764;9.172;2022-12-10T03:41:06;3.80;99.90
758;DHT22;363;48.764;9.172;2022-12-10T03:43:32;4.10;99.90
758;DHT22;363;48.764;9.172;2022-12-10T03:45:58;3.70;99.90
758;DHT22;363;48.764;9.172;2022-12-10T03:48:23;3.80;99.90
758;DHT22;363;48.764;9.172;2022-12-10T03:50:49;3.90;99.90
758;DHT22;363;48.764;9.172;2022-12-10T03:53:15;3.50;99.90
758;DHT22;363;48.764;9.172;2022-12-10T03:55:41;2.80;99.90
758;DHT22;363;48.764;9.172;2022-12-10T03:58:07;3.50;99.90
758;DHT22;363;48.764;9.172;2022-12-10T04:00:33;3.50;99.90
758;DHT22;363;48.764;9.172;2022-12-10T04:02:59;3.70;99.90
758;DHT22;363;48.764;9.172;2022-12-10T04:05:25;3.40;99.90
758;DHT22;363;48.764;9.172;2022-12-10T04:07:50;3.70;99.90
758;DHT22;363;48.764;9.172;2022-12-10T04:10:16;3.90;99.90
758;DHT22;363;48.764;9.172;2022-12-10T04:12:41;3.90;99.90
758;DHT22;363;48.764;9.172;2022-12-10T04:15:08;4.30;99.90
758;DHT22;363;48.764;9.172;2022-12-10T04:17:52;4.00;99.90
758;DHT22;363;48.764;9.172;2022-12-10T04:20:18;4.20;99.90
758;DHT22;363;48.764;9.172;2022-12-10T04:23:02;3.30;99.90
758;DHT22;363;48.764;9.172;2022-12-10T04:25:46;3.90;99.90
758;DHT22;363;48.764;9.172;2022-12-10T04:28:30;3.80;99.90
758;DHT22;363;48.764;9.172;2022-12-10T04:30:56;3.70;99.90
758;DHT22;363;48.764;9.172;2022-12-10T04:33:21;3.60;99.90
758;DHT22;363;48.764;9.172;2022-12-10T04:35:47;3.90;99.90
758;DHT22;363;48.764;9.172;2022-12-10T04:38:13;3.70;99.90
758;DHT22;363;48.764;9.172;2022-12-10T04:40:38;3.70;99.90
758;DHT22;363;48.764;9.172;2022-12-10T04:43:04;3.90;99.90
758;DHT22;363;48.764;9.172;2022-12-10T04:45:29;3.60;99.90
758;DHT22;363;48.764;9.172;2022-12-10T04:47:55;3.90;99.90
758;DHT22;363;48.764;9.172;2022-12-10T04:50:21;3.30;99.90
758;DHT22;363;48.764;9.172;2022-12-10T04:52:46;3.80;99.90
758;DHT22;363;48.764;9.172;2022-12-10T04:55:12;3.90;99.90
758;DHT22;363;48.764;9.172;2022-12-10T04:57:38;3.30;99.90
758;DHT22;363;48.764;9.172;2022-12-10T05:00:03;3.60;99.90
758;DHT22;363;48.764;9.172;2022-12-10T05:02:29;3.60;99.90
758;DHT22;363;48.764;9.172;2022-12-10T05:04:55;3.40;99.90
758;DHT22;363;48.764;9.172;2022-12-10T05:07:20;4.10;99.90
758;DHT22;363;48.764;9.172;2022-12-10T05:09:46;3.10;99.90
758;DHT22;363;48.764;9.172;2022-12-10T05:12:12;3.70;99.90
758;DHT22;363;48.764;9.172;2022-12-10T05:14:38;3.70;99.90
758;DHT22;363;48.764;9.172;2022-12-10T05:17:04;3.60;99.90
758;DHT22;363;48.764;9.172;2022-12-10T05:19:30;3.60;99.90
758;DHT22;363;48.764;9.172;2022-12-10T05:21:55;3.50;99.90
758;DHT22;363;48.764;9.172;2022-12-10T05:24:40;3.50;99.90
758;DHT22;363;48.764;9.172;2022-12-10T05:27:05;3.80;99.90
758;DHT22;363;48.764;9.172;2022-12-10T05:29:32;3.90;99.90
758;DHT22;363;48.764;9.172;2022-12-10T05:31:58;3.50;99.90
758;DHT22;363;48.764;9.172;2022-12-10T05:34:24;3.60;99.90
758;DHT22;363;48.764;9.172;2022-12-10T05:36:49;3.60;99.90
758;DHT22;363;48.764;9.172;2022-12-10T05:39:15;3.80;99.90
758;DHT22;363;48.764;9.172;2022-12-10T05:41:41;3.90;99.90
758;DHT22;363;48.764;9.172;2022-12-10T05:44:08;3.60;99.90
758;DHT22;363;48.764;9.172;2022-12-10T05:46:35;3.70;99.90
758;DHT22;363;48.764;9.172;2022-12-10T05:49:03;3.60;99.90
758;DHT22;363;48.764;9.172;2022-12-10T05:51:31;3.20;99.90
758;DHT22;363;48.764;9.172;2022-12-10T05:53:58;3.70;99.90
758;DHT22;363;48.764;9.172;2022-12-10T05:56:25;3.90;99.90
758;DHT22;363;48.764;9.172;2022-12-10T05:58:54;3.00;99.90
758;DHT22;363;48.764;9.172;2022-12-10T06:01:23;3.50;99.90
758;DHT22;363;48.764;9.172;2022-12-10T06:03:49;3.50;99.90
758;DHT22;363;48.764;9.172;2022-12-10T06:06:24;3.50;99.90
758;DHT22;363;48.764;9.172;2022-12-10T06:08:51;3.50;99.90
758;DHT22;363;48.764;9.172;2022-12-10T06:11:17;3.00;99.90
758;DHT22;363;48.764;9.172;2022-12-10T06:13:43;3.00;99.90
758;DHT22;363;48.764;9.172;2022-12-10T06:16:11;3.40;99.90
758;DHT22;363;48.764;9.172;2022-12-10T06:18:37;3.20;99.90
758;DHT22;363;48.764;9.172;2022-12-10T06:21:04;3.50;99.90
758;DHT22;363;48.764;9.172;2022-12-10T06:23:30;3.40;99.90
758;DHT22;363;48.764;9.172;2022-12-10T06:25:56;3.40;99.90
758;DHT22;363;48.764;9.172;2022-12-10T06:28:22;3.50;99.90
758;DHT22;363;48.764;9.172;2022-12-10T06:30:47;3.20;99.90
758;DHT22;363;48.764;9.172;2022-12-10T06:33:13;3.50;99.90
758;DHT22;363;48.764;9.172;2022-12-10T06:35:38;3.40;99.90
758;DHT22;363;48.764;9.172;2022-12-10T06:38:04;3.30;99.90
758;DHT22;363;48.764;9.172;2022-12-10T06:40:30;3.20;99.90
758;DHT22;363;48.764;9.172;2022-12-10T06:42:55;3.40;99.90
758;DHT22;363;48.764;9.172;2022-12-10T06:45:21;2.70;99.90
758;DHT22;363;48.764;9.172;2022-12-10T06:47:47;3.30;99.90
758;DHT22;363;48.764;9.172;2022-12-10T06:50:12;3.50;99.90
758;DHT22;363;48.764;9.172;2022-12-10T06:52:39;3.40;99.90
758;DHT22;363;48.764;9.172;2022-12-10T06:55:05;3.50;99.90
758;DHT22;363;48.764;9.172;2022-12-10T06:57:30;3.40;99.90
758;DHT22;363;48.764;9.172;2022-12-10T06:59:56;3.50;99.90
758;DHT22;363;48.764;9.172;2022-12-10T07:02:22;3.30;99.90
758;DHT22;363;48.764;9.172;2022-12-10T07:04:47;3.10;99.90
758;DHT22;363;48.764;9.172;2022-12-10T07:07:14;3.20;99.90
758;DHT22;363;48.764;9.172;2022-12-10T07:09:40;3.40;99.90
758;DHT22;363;48.764;9.172;2022-12-10T07:12:05;3.30;99.90
758;DHT22;363;48.764;9.172;2022-12-10T07:14:31;3.40;99.90
758;DHT22;363;48.764;9.172;2022-12-10T07:16:57;3.20;99.90
758;DHT22;363;48.764;9.172;2022-12-10T07:19:22;3.50;99.90
758;DHT22;363;48.764;9.172;2022-12-10T07:21:48;3.40;99.90
758;DHT22;363;48.764;9.172;2022-12-10T07:24:16;3.50;99.90
758;DHT22;363;48.764;9.172;2022-12-10T07:26:44;2.70;99.90
758;DHT22;363;48.764;9.172;2022-12-10T07:29:14;2.90;99.90
758;DHT22;363;48.764;9.172;2022-12-10T07:31:40;2.80;99.90
758;DHT22;363;48.764;9.172;2022-12-10T07:34:06;3.60;99.90
758;DHT22;363;48.764;9.172;2022-12-10T07:36:32;3.30;99.90
758;DHT22;363;48.764;9.172;2022-12-10T07:38:58;3.50;99.90
758;DHT22;363;48.764;9.172;2022-12-10T07:41:24;3.50;99.90
758;DHT22;363;48.764;9.172;2022-12-10T07:43:51;3.50;99.90
758;DHT22;363;48.764;9.172;2022-12-10T07:48:45;3.40;99.90
758;DHT22;363;48.764;9.172;2022-12-10T07:51:11;3.20;99.90
758;DHT22;363;48.764;9.172;2022-12-10T07:53:37;3.70;99.90
758;DHT22;363;48.764;9.172;2022-12-10T07:56:03;3.30;99.90
758;DHT22;363;48.764;9.172;2022-12-10T07:58:29;3.40;99.90
758;DHT22;363;48.764;9.172;2022-12-10T08:00:55;3.30;99.90
758;DHT22;363;48.764;9.172;2022-12-10T08:03:20;3.40;99.90
758;DHT22;363;48.764;9.172;2022-12-10T08:05:46;3.50;99.90
758;DHT22;363;48.764;9.172;2022-12-10T08:08:12;3.40;99.90
758;DHT22;363;48.764;9.172;2022-12-10T08:10:38;3.60;99.90
758;DHT22;363;48.764;9.172;2022-12-10T08:13:05;3.70;99.90
758;DHT22;363;48.764;9.172;2022-12-10T08:15:31;3.70;99.90
758;DHT22;363;48.764;9.172;2022-12-10T08:17:57;3.50;99.90
758;DHT22;363;48.764;9.172;2022-12-10T08:20:24;3.60;99.90
758;DHT22;363;48.764;9.172;2022-12-10T08:22:50;3.80;99.90
758;DHT22;363;48.764;9.172;2022-12-10T08:25:16;3.60;99.90
758;DHT22;363;48.764;9.172;2022-12-10T08:27:42;3.70;99.90
758;DHT22;363;48.764;9.172;2022-12-10T08:30:08;3.80;99.90
758;DHT22;363;48.764;9.172;2022-12-10T08:32:34;3.60;99.90
758;DHT22;363;48.764;9.172;2022-12-10T08:34:59;3.90;99.90
758;DHT22;363;48.764;9.172;2022-12-10T08:37:25;3.10;99.90
758;DHT22;363;48.764;9.172;2022-12-10T08:39:51;3.80;99.90
758;DHT22;363;48.764;9.172;2022-12-10T08:42:16;3.60;99.90
758;DHT22;363;48.764;9.172;2022-12-10T08:44:42;3.70;99.90
758;DHT22;363;48.764;9.172;2022-12-10T08:47:08;3.60;99.90
758;DHT22;363;48.764;9.172;2022-12-10T08:49:33;3.40;99.90
758;DHT22;363;48.764;9.172;2022-12-10T08:51:59;3.60;99.90
758;DHT22;363;48.764;9.172;2022-12-10T08:54:25;3.20;99.90
758;DHT22;363;48.764;9.172;2022-12-10T08:56:50;3.20;99.90
758;DHT22;363;48.764;9.172;2022-12-10T08:59:16;3.60;99.90
758;DHT22;363;48.764;9.172;2022-12-10T09:01:42;3.60;99.90
758;DHT22;363;48.764;9.172;2022-12-10T09:04:08;3.70;99.90
758;DHT22;363;48.764;9.172;2022-12-10T09:06:33;3.80;99.90
758;DHT22;363;48.764;9.172;2022-12-10T09:09:00;3.80;99.90
758;DHT22;363;48.764;9.172;2022-12-10T09:11:31;3.60;99.90
758;DHT22;363;48.764;9.172;2022-12-10T09:13:58;3.70;99.90
758;DHT22;363;48.764;9.172;2022-12-10T09:16:32;3.80;99.90
758;DHT22;363;48.764;9.172;2022-12-10T09:18:58;3.70;99.90
758;DHT22;363;48.764;9.172;2022-12-10T09:21:24;3.80;99.90
758;DHT22;363;48.764;9.172;2022-12-10T09:23:50;3.90;99.90
758;DHT22;363;48.764;9.172;2022-12-10T09:26:20;3.80;99.90
758;DHT22;363;48.764;9.172;2022-12-10T09:28:46;4.00;99.90
758;DHT22;363;48.764;9.172;2022-12-10T09:31:14;3.50;99.90
758;DHT22;363;48.764;9.172;2022-12-10T09:33:40;3.50;99.90
758;DHT22;363;48.764;9.172;2022-12-10T09:36:07;4.20;99.90
758;DHT22;363;48.764;9.172;2022-12-10T09:38:34;4.00;99.90
758;DHT22;363;48.764;9.172;2022-12-10T09:43:50;3.90;99.90
758;DHT22;363;48.764;9.172;2022-12-10T09:51:35;4.10;99.90
758;DHT22;363;48.764;9.172;2022-12-10T09:54:04;4.00;99.90
758;DHT22;363;48.764;9.172;2022-12-10T09:56:37;4.20;99.90
758;DHT22;363;48.764;9.172;2022-12-10T09:59:17;3.80;99.90
758;DHT22;363;48.764;9.172;2022-12-10T10:01:45;3.90;99.90
758;DHT22;363;48.764;9.172;2022-12-10T10:04:13;3.90;99.90
758;DHT22;363;48.764;9.172;2022-12-10T10:06:42;3.90;99.90
758;DHT22;363;48.764;9.172;2022-12-10T10:09:12;3.90;99.90
758;DHT22;363;48.764;9.172;2022-12-10T10:11:38;3.70;99.90
758;DHT22;363;48.764;9.172;2022-12-10T10:14:14;4.00;99.90
758;DHT22;363;48.764;9.172;2022-12-10T10:16:46;3.90;99.90
758;DHT22;363;48.764;9.172;2022-12-10T10:19:16;3.40;99.90
758;DHT22;363;48.764;9.172;2022-12-10T10:21:44;3.90;99.90
758;DHT22;363;48.764;9.172;2022-12-10T10:24:28;4.00;99.90
758;DHT22;363;48.764;9.172;2022-12-10T10:27:20;3.40;99.90
758;DHT22;363;48.764;9.172;2022-12-10T10:29:51;4.10;99.90
758;DHT22;363;48.764;9.172;2022-12-10T10:34:45;3.90;99.90
758;DHT22;363;48.764;9.172;2022-12-10T10:37:29;4.20;99.90
758;DHT22;363;48.764;9.172;2022-12-10T10:39:56;4.00;99.90
758;DHT22;363;48.764;9.172;2022-12-10T10:42:32;4.00;99.90
758;DHT22;363;48.764;9.172;2022-12-10T10:44:59;4.20;99.90
758;DHT22;363;48.764;9.172;2022-12-10T10:47:32;4.30;99.90
758;DHT22;363;48.764;9.172;2022-12-10T10:49:58;4.10;99.90
758;DHT22;363;48.764;9.172;2022-12-10T10:52:46;4.10;99.90
758;DHT22;363;48.764;9.172;2022-12-10T10:55:31;4.60;99.90
758;DHT22;363;48.764;9.172;2022-12-10T10:58:00;4.20;99.90
758;DHT22;363;48.764;9.172;2022-12-10T11:00:26;4.50;99.90
758;DHT22;363;48.764;9.172;2022-12-10T11:02:51;4.50;99.90
758;DHT22;363;48.764;9.172;2022-12-10T11:05:26;4.20;99.90
758;DHT22;363;48.764;9.172;2022-12-10T11:08:06;4.30;99.90
758;DHT22;363;48.764;9.172;2022-12-10T11:10:50;4.20;99.90
758;DHT22;363;48.764;9.172;2022-12-10T11:13:23;4.30;99.90
758;DHT22;363;48.764;9.172;2022-12-10T11:15:59;4.60;99.90
758;DHT22;363;48.764;9.172;2022-12-10T11:18:32;4.60;99.90
758;DHT22;363;48.764;9.172;2022-12-10T11:23:43;4.00;99.90
758;DHT22;363;48.764;9.172;2022-12-10T11:35:01;4.30;99.90
758;DHT22;363;48.764;9.172;2022-12-10T11:45:20;4.50;99.90
758;DHT22;363;48.764;9.172;2022-12-10T11:48:20;4.40;99.90
758;DHT22;363;48.764;9.172;2022-12-10T11:50:53;4.50;99.90
758;DHT22;363;48.764;9.172;2022-12-10T11:53:47;4.90;99.90
758;DHT22;363;48.764;9.172;2022-12-10T11:56:33;4.60;99.90
758;DHT22;363;48.764;9.172;2022-12-10T11:59:15;4.60;99.90
758;DHT22;363;48.764;9.172;2022-12-10T12:10:54;4.80;99.90
758;DHT22;363;48.764;9.172;2022-12-10T12:13:34;4.60;99.90
758;DHT22;363;48.764;9.172;2022-12-10T12:16:03;4.60;99.90
758;DHT22;363;48.764;9.172;2022-12-10T12:18:45;4.00;99.90
758;DHT22;363;48.764;9.172;2022-12-10T12:21:15;4.90;99.90
758;DHT22;363;48.764;9.172;2022-12-10T12:24:01;4.70;99.90
758;DHT22;363;48.764;9.172;2022-12-10T12:26:37;4.90;99.90
758;DHT22;363;48.764;9.172;2022-12-10T12:29:25;4.50;99.90
758;DHT22;363;48.764;9.172;2022-12-10T12:31:59;4.60;99.90
758;DHT22;363;48.764;9.172;2022-12-10T12:35:06;4.90;99.90
758;DHT22;363;48.764;9.172;2022-12-10T12:37:38;5.10;99.90
758;DHT22;363;48.764;9.172;2022-12-10T12:43:02;4.80;99.90
758;DHT22;363;48.764;9.172;2022-12-10T12:45:39;4.90;99.90
758;DHT22;363;48.764;9.172;2022-12-10T12:53:11;4.80;99.90
758;DHT22;363;48.764;9.172;2022-12-10T13:01:29;4.70;99.90
758;DHT22;363;48.764;9.172;2022-12-10T13:03:57;4.80;99.90
758;DHT22;363;48.764;9.172;2022-12-10T13:06:27;4.80;99.90
758;DHT22;363;48.764;9.172;2022-12-10T13:12:15;4.70;99.90
758;DHT22;363;48.764;9.172;2022-12-10T13:14:34;4.90;99.90
758;DHT22;363;48.764;9.172;2022-12-10T13:17:22;4.70;99.90
758;DHT22;363;48.764;9.172;2022-12-10T13:19:50;4.10;99.90
758;DHT22;363;48.764;9.172;2022-12-10T13:25:41;4.90;99.90
758;DHT22;363;48.764;9.172;2022-12-10T13:28:21;4.70;99.90
758;DHT22;363;48.764;9.172;2022-12-10T13:36:21;4.60;99.90
758;DHT22;363;48.764;9.172;2022-12-10T13:42:26;4.70;99.90
758;DHT22;363;48.764;9.172;2022-12-10T13:47:55;4.40;99.90
758;DHT22;363;48.764;9.172;2022-12-10T13:50:44;4.30;99.90
758;DHT22;363;48.764;9.172;2022-12-10T13:53:19;4.40;99.90
758;DHT22;363;48.764;9.172;2022-12-10T13:58:42;4.20;99.90
758;DHT22;363;48.764;9.172;2022-12-10T14:01:37;4.20;99.90
758;DHT22;363;48.764;9.172;2022-12-10T14:04:31;3.80;99.90
758;DHT22;363;48.764;9.172;2022-12-10T14:07:02;3.90;99.90
758;DHT22;363;48.764;9.172;2022-12-10T14:09:31;3.90;99.90
758;DHT22;363;48.764;9.172;2022-12-10T14:12:07;3.50;99.90
758;DHT22;363;48.764;9.172;2022-12-10T14:14:41;3.80;99.90
758;DHT22;363;48.764;9.172;2022-12-10T14:17:24;3.80;99.90
758;DHT22;363;48.764;9.172;2022-12-10T14:19:54;4.00;99.90
758;DHT22;363;48.764;9.172;2022-12-10T14:22:39;4.00;99.90
758;DHT22;363;48.764;9.172;2022-12-10T14:25:14;3.90;99.90
758;DHT22;363;48.764;9.172;2022-12-10T14:27:44;4.00;99.90
758;DHT22;363;48.764;9.172;2022-12-10T14:30:21;3.80;99.90
758;DHT22;363;48.764;9.172;2022-12-10T14:32:47;4.00;99.90
758;DHT22;363;48.764;9.172;2022-12-10T14:35:20;4.10;99.90
758;DHT22;363;48.764;9.172;2022-12-10T14:37:48;3.90;99.90
758;DHT22;363;48.764;9.172;2022-12-10T14:42:55;3.90;99.90
758;DHT22;363;48.764;9.172;2022-12-10T14:45:27;3.70;99.90
758;DHT22;363;48.764;9.172;2022-12-10T14:47:53;4.30;99.90
758;DHT22;363;48.764;9.172;2022-12-10T14:50:18;3.80;99.90
758;DHT22;363;48.764;9.172;2022-12-10T14:52:51;3.70;99.90
758;DHT22;363;48.764;9.172;2022-12-10T14:55:21;3.80;99.90
758;DHT22;363;48.764;9.172;2022-12-10T14:57:54;3.60;99.90
758;DHT22;363;48.764;9.172;2022-12-10T15:00:22;3.50;99.90
758;DHT22;363;48.764;9.172;2022-12-10T15:03:07;3.90;99.90
758;DHT22;363;48.764;9.172;2022-12-10T15:05:34;3.80;99.90
758;DHT22;363;48.764;9.172;2022-12-10T15:08:03;3.90;99.90
758;DHT22;363;48.764;9.172;2022-12-10T15:10:33;3.80;99.90
758;DHT22;363;48.764;9.172;2022-12-10T15:13:00;3.60;99.90
758;DHT22;363;48.764;9.172;2022-12-10T15:15:39;3.60;99.90
758;DHT22;363;48.764;9.172;2022-12-10T15:18:11;3.40;99.90
758;DHT22;363;48.764;9.172;2022-12-10T15:20:53;3.50;99.90
758;DHT22;363;48.764;9.172;2022-12-10T15:23:29;3.70;99.90
758;DHT22;363;48.764;9.172;2022-12-10T15:26:04;3.70;99.90
758;DHT22;363;48.764;9.172;2022-12-10T15:28:31;3.60;99.90
758;DHT22;363;48.764;9.172;2022-12-10T15:33:40;3.50;99.90
758;DHT22;363;48.764;9.172;2022-12-10T15:36:20;3.60;99.90
758;DHT22;363;48.764;9.172;2022-12-10T15:38:49;3.60;99.90
758;DHT22;363;48.764;9.172;2022-12-10T15:41:37;3.50;99.90
758;DHT22;363;48.764;9.172;2022-12-10T15:44:17;3.70;99.90
758;DHT22;363;48.764;9.172;2022-12-10T15:46:50;3.60;99.90
758;DHT22;363;48.764;9.172;2022-12-10T15:49:16;3.40;99.90
758;DHT22;363;48.764;9.172;2022-12-10T15:51:43;3.10;99.90
758;DHT22;363;48.764;9.172;2022-12-10T15:54:38;3.30;99.90
758;DHT22;363;48.764;9.172;2022-12-10T15:59:51;3.30;99.90
758;DHT22;363;48.764;9.172;2022-12-10T16:04:47;3.50;99.90
758;DHT22;363;48.764;9.172;2022-12-10T16:07:13;3.20;99.90
758;DHT22;363;48.764;9.172;2022-12-10T16:09:41;3.10;99.90
758;DHT22;363;48.764;9.172;2022-12-10T16:12:10;3.30;99.90
758;DHT22;363;48.764;9.172;2022-12-10T16:14:36;2.80;99.90
758;DHT22;363;48.764;9.172;2022-12-10T16:17:02;3.10;99.90
758;DHT22;363;48.764;9.172;2022-12-10T16:19:28;3.00;99.90
758;DHT22;363;48.764;9.172;2022-12-10T16:21:53;3.20;99.90
758;DHT22;363;48.764;9.172;2022-12-10T16:24:19;3.40;99.90
758;DHT22;363;48.764;9.172;2022-12-10T16:26:45;3.90;99.90
758;DHT22;363;48.764;9.172;2022-12-10T16:29:11;3.30;99.90
758;DHT22;363;48.764;9.172;2022-12-10T16:31:36;3.10;99.90
758;DHT22;363;48.764;9.172;2022-12-10T16:34:02;3.40;99.90
758;DHT22;363;48.764;9.172;2022-12-10T16:36:28;3.60;99.90
758;DHT22;363;48.764;9.172;2022-12-10T16:38:53;3.20;99.90
758;DHT22;363;48.764;9.172;2022-12-10T16:41:22;3.90;99.90
758;DHT22;363;48.764;9.172;2022-12-10T16:43:48;3.30;99.90
758;DHT22;363;48.764;9.172;2022-12-10T16:46:14;3.50;99.90
758;DHT22;363;48.764;9.172;2022-12-10T16:48:40;3.40;99.90
758;DHT22;363;48.764;9.172;2022-12-10T16:51:20;3.30;99.90
758;DHT22;363;48.764;9.172;2022-12-10T16:53:47;3.40;99.90
758;DHT22;363;48.764;9.172;2022-12-10T16:56:14;3.40;99.90
758;DHT22;363;48.764;9.172;2022-12-10T16:58:40;3.60;99.90
758;DHT22;363;48.764;9.172;2022-12-10T17:01:19;3.50;99.90
758;DHT22;363;48.764;9.172;2022-12-10T17:03:45;3.30;99.90
758;DHT22;363;48.764;9.172;2022-12-10T17:06:11;3.20;99.90
758;DHT22;363;48.764;9.172;2022-12-10T17:08:37;3.60;99.90
758;DHT22;363;48.764;9.172;2022-12-10T17:14:09;3.40;99.90
758;DHT22;363;48.764;9.172;2022-12-10T17:16:38;2.60;99.90
758;DHT22;363;48.764;9.172;2022-12-10T17:19:03;3.00;99.90
758;DHT22;363;48.764;9.172;2022-12-10T17:21:29;3.30;99.90
758;DHT22;363;48.764;9.172;2022-12-10T17:23:55;3.30;99.90
758;DHT22;363;48.764;9.172;2022-12-10T17:26:27;3.10;99.90
758;DHT22;363;48.764;9.172;2022-12-10T17:29:00;3.10;99.90
758;DHT22;363;48.764;9.172;2022-12-10T17:31:26;3.30;99.90
758;DHT22;363;48.764;9.172;2022-12-10T17:36:18;3.40;99.90
758;DHT22;363;48.764;9.172;2022-12-10T17:38:44;3.20;99.90
758;DHT22;363;48.764;9.172;2022-12-10T17:41:10;3.30;99.90
758;DHT22;363;48.764;9.172;2022-12-10T17:43:38;3.20;99.90
758;DHT22;363;48.764;9.172;2022-12-10T17:46:04;3.40;99.90
758;DHT22;363;48.764;9.172;2022-12-10T17:48:29;3.40;99.90
758;DHT22;363;48.764;9.172;2022-12-10T17:50:55;3.10;99.90
758;DHT22;363;48.764;9.172;2022-12-10T17:53:21;3.00;99.90
758;DHT22;363;48.764;9.172;2022-12-10T17:55:57;3.10;99.90
758;DHT22;363;48.764;9.172;2022-12-10T17:58:24;3.00;99.90
758;DHT22;363;48.764;9.172;2022-12-10T18:00:51;2.90;99.90
758;DHT22;363;48.764;9.172;2022-12-10T18:03:17;2.90;99.90
758;DHT22;363;48.764;9.172;2022-12-10T18:05:43;2.70;99.90
758;DHT22;363;48.764;9.172;2022-12-10T18:08:12;2.80;99.90
758;DHT22;363;48.764;9.172;2022-12-10T18:10:38;2.50;99.90
758;DHT22;363;48.764;9.172;2022-12-10T18:13:04;2.40;99.90
758;DHT22;363;48.764;9.172;2022-12-10T18:15:30;2.60;99.90
758;DHT22;363;48.764;9.172;2022-12-10T18:17:58;2.80;99.90
758;DHT22;363;48.764;9.172;2022-12-10T18:20:25;2.90;99.90
758;DHT22;363;48.764;9.172;2022-12-10T18:22:52;2.70;99.90
758;DHT22;363;48.764;9.172;2022-12-10T18:25:19;2.80;99.90
758;DHT22;363;48.764;9.172;2022-12-10T18:27:45;2.90;99.90
758;DHT22;363;48.764;9.172;2022-12-10T18:30:16;2.60;99.90
758;DHT22;363;48.764;9.172;2022-12-10T18:32:42;2.60;99.90
758;DHT22;363;48.764;9.172;2022-12-10T18:35:08;2.00;99.90
758;DHT22;363;48.764;9.172;2022-12-10T18:37:33;1.90;99.90
758;DHT22;363;48.764;9.172;2022-12-10T18:39:59;2.10;99.90
758;DHT22;363;48.764;9.172;2022-12-10T18:42:25;2.80;99.90
758;DHT22;363;48.764;9.172;2022-12-10T18:44:50;2.70;99.90
758;DHT22;363;48.764;9.172;2022-12-10T18:47:16;2.10;99.90
758;DHT22;363;48.764;9.172;2022-12-10T18:49:42;2.70;99.90
758;DHT22;363;48.764;9.172;2022-12-10T18:52:07;2.70;99.90
758;DHT22;363;48.764;9.172;2022-12-10T18:54:33;2.80;99.90
758;DHT22;363;48.764;9.172;2022-12-10T18:56:59;2.60;99.90